sensor_id;sensor_type;location;lat;lon;timestamp;P1;durP1;ratioP1;P2;durP2;ratioP2
68126;SDS011;54931;52.098;21.006;2023-02-07T00:01:33;105.50;;;38.90;;
68126;SDS011;54931;52.098;21.006;2023-02-07T00:04:01;110.90;;;37.70;;
68126;SDS011;54931;52.098;21.006;2023-02-07T00:06:32;122.30;;;45.80;;
68126;SDS011;54931;52.098;21.006;2023-02-07T00:09:04;118.70;;;41.80;;
68126;SDS011;54931;52.098;21.006;2023-02-07T00:11:35;114.10;;;42.50;;
68126;SDS011;54931;52.098;21.006;2023-02-07T00:14:08;127.80;;;45.90;;
68126;SDS011;54931;52.098;21.006;2023-02-07T00:16:38;112.50;;;41.90;;
68126;SDS011;54931;52.098;21.006;2023-02-07T00:19:07;109.70;;;38.60;;
68126;SDS011;54931;52.098;21.006;2023-02-07T00:21:35;111.60;;;41.90;;
68126;SDS011;54931;52.098;21.006;2023-02-07T00:24:03;120.20;;;42.40;;
68126;SDS011;54931;52.098;21.006;2023-02-07T00:26:32;116.10;;;38.50;;
68126;SDS011;54931;52.098;21.006;2023-02-07T00:29:00;107.50;;;38.80;;
68126;SDS011;54931;52.098;21.006;2023-02-07T00:31:31;119.00;;;40.20;;
68126;SDS011;54931;52.098;21.006;2023-02-07T00:34:03;110.00;;;37.60;;
68126;SDS011;54931;52.098;21.006;2023-02-07T00:36:34;113.30;;;37.00;;
68126;SDS011;54931;52.098;21.006;2023-02-07T00:39:06;87.80;;;30.40;;
68126;SDS011;54931;52.098;21.006;2023-02-07T00:41:37;103.90;;;38.60;;
68126;SDS011;54931;52.098;21.006;2023-02-07T00:44:07;115.20;;;39.10;;
68126;SDS011;54931;52.098;21.006;2023-02-07T00:46:36;113.70;;;40.30;;
68126;SDS011;54931;52.098;21.006;2023-02-07T00:49:05;102.70;;;36.40;;
68126;SDS011;54931;52.098;21.006;2023-02-07T00:51:33;116.10;;;40.70;;
68126;SDS011;54931;52.098;21.006;2023-02-07T00:54:02;107.90;;;38.80;;
68126;SDS011;54931;52.098;21.006;2023-02-07T00:56:31;98.60;;;33.40;;
68126;SDS011;54931;52.098;21.006;2023-02-07T00:59:00;112.80;;;39.20;;
68126;SDS011;54931;52.098;21.006;2023-02-07T01:01:28;121.20;;;45.10;;
68126;SDS011;54931;52.098;21.006;2023-02-07T01:03:56;109.60;;;36.60;;
68126;SDS011;54931;52.098;21.006;2023-02-07T01:06:23;108.10;;;37.20;;
68126;SDS011;54931;52.098;21.006;2023-02-07T01:08:58;112.30;;;39.70;;
68126;SDS011;54931;52.098;21.006;2023-02-07T01:11:27;105.10;;;38.20;;
68126;SDS011;54931;52.098;21.006;2023-02-07T01:13:58;108.20;;;39.30;;
68126;SDS011;54931;52.098;21.006;2023-02-07T01:16:30;107.10;;;37.20;;
68126;SDS011;54931;52.098;21.006;2023-02-07T01:19:07;114.20;;;39.40;;
68126;SDS011;54931;52.098;21.006;2023-02-07T01:21:37;114.90;;;40.60;;
68126;SDS011;54931;52.098;21.006;2023-02-07T01:24:06;108.40;;;39.30;;
68126;SDS011;54931;52.098;21.006;2023-02-07T01:26:36;92.80;;;35.30;;
68126;SDS011;54931;52.098;21.006;2023-02-07T01:29:05;115.70;;;40.00;;
68126;SDS011;54931;52.098;21.006;2023-02-07T01:31:34;96.00;;;35.50;;
68126;SDS011;54931;52.098;21.006;2023-02-07T01:34:01;76.20;;;27.10;;
68126;SDS011;54931;52.098;21.006;2023-02-07T01:36:30;108.90;;;40.50;;
68126;SDS011;54931;52.098;21.006;2023-02-07T01:38:58;93.70;;;32.60;;
68126;SDS011;54931;52.098;21.006;2023-02-07T01:41:26;108.60;;;39.30;;
68126;SDS011;54931;52.098;21.006;2023-02-07T01:46:35;107.20;;;38.20;;
68126;SDS011;54931;52.098;21.006;2023-02-07T01:49:10;121.70;;;38.60;;
68126;SDS011;54931;52.098;21.006;2023-02-07T01:51:45;118.00;;;42.00;;
68126;SDS011;54931;52.098;21.006;2023-02-07T01:54:17;110.70;;;38.80;;
68126;SDS011;54931;52.098;21.006;2023-02-07T01:56:49;121.70;;;41.20;;
68126;SDS011;54931;52.098;21.006;2023-02-07T01:59:23;118.10;;;41.70;;
68126;SDS011;54931;52.098;21.006;2023-02-07T02:01:53;114.30;;;41.90;;
68126;SDS011;54931;52.098;21.006;2023-02-07T02:04:22;111.20;;;42.40;;
68126;SDS011;54931;52.098;21.006;2023-02-07T02:06:50;127.90;;;42.50;;
68126;SDS011;54931;52.098;21.006;2023-02-07T02:09:19;105.50;;;37.50;;
68126;SDS011;54931;52.098;21.006;2023-02-07T02:12:07;116.40;;;39.90;;
68126;SDS011;54931;52.098;21.006;2023-02-07T02:15:02;127.40;;;43.90;;
68126;SDS011;54931;52.098;21.006;2023-02-07T02:38:14;119.00;;;43.90;;
68126;SDS011;54931;52.098;21.006;2023-02-07T02:40:58;121.90;;;43.90;;
68126;SDS011;54931;52.098;21.006;2023-02-07T02:43:41;116.10;;;43.70;;
68126;SDS011;54931;52.098;21.006;2023-02-07T02:46:21;119.00;;;41.80;;
68126;SDS011;54931;52.098;21.006;2023-02-07T02:48:54;93.90;;;33.40;;
68126;SDS011;54931;52.098;21.006;2023-02-07T02:51:23;113.50;;;40.50;;
68126;SDS011;54931;52.098;21.006;2023-02-07T02:53:53;112.50;;;37.70;;
68126;SDS011;54931;52.098;21.006;2023-02-07T03:08:56;113.30;;;43.00;;
68126;SDS011;54931;52.098;21.006;2023-02-07T03:11:25;104.10;;;38.10;;
68126;SDS011;54931;52.098;21.006;2023-02-07T03:16:57;100.70;;;37.20;;
68126;SDS011;54931;52.098;21.006;2023-02-07T03:19:41;112.00;;;42.20;;
68126;SDS011;54931;52.098;21.006;2023-02-07T03:22:17;81.70;;;29.90;;
68126;SDS011;54931;52.098;21.006;2023-02-07T03:24:50;110.00;;;38.90;;
68126;SDS011;54931;52.098;21.006;2023-02-07T03:27:23;103.50;;;39.60;;
68126;SDS011;54931;52.098;21.006;2023-02-07T03:29:55;100.70;;;38.60;;
68126;SDS011;54931;52.098;21.006;2023-02-07T03:32:29;100.30;;;35.90;;
68126;SDS011;54931;52.098;21.006;2023-02-07T03:35:17;105.40;;;35.70;;
68126;SDS011;54931;52.098;21.006;2023-02-07T03:38:00;101.30;;;36.50;;
68126;SDS011;54931;52.098;21.006;2023-02-07T03:40:35;92.10;;;32.10;;
68126;SDS011;54931;52.098;21.006;2023-02-07T03:43:13;99.30;;;33.80;;
68126;SDS011;54931;52.098;21.006;2023-02-07T03:45:44;101.10;;;36.00;;
68126;SDS011;54931;52.098;21.006;2023-02-07T03:48:12;101.50;;;37.40;;
68126;SDS011;54931;52.098;21.006;2023-02-07T03:50:40;99.80;;;38.20;;
68126;SDS011;54931;52.098;21.006;2023-02-07T03:53:08;96.60;;;35.00;;
68126;SDS011;54931;52.098;21.006;2023-02-07T03:55:36;104.80;;;38.60;;
68126;SDS011;54931;52.098;21.006;2023-02-07T03:58:03;102.30;;;35.50;;
68126;SDS011;54931;52.098;21.006;2023-02-07T04:00:33;91.80;;;35.30;;
68126;SDS011;54931;52.098;21.006;2023-02-07T04:03:03;92.60;;;36.20;;
68126;SDS011;54931;52.098;21.006;2023-02-07T04:05:31;104.70;;;36.40;;
68126;SDS011;54931;52.098;21.006;2023-02-07T04:07:58;98.20;;;35.90;;
68126;SDS011;54931;52.098;21.006;2023-02-07T04:10:27;93.70;;;35.90;;
68126;SDS011;54931;52.098;21.006;2023-02-07T04:12:55;87.60;;;32.30;;
68126;SDS011;54931;52.098;21.006;2023-02-07T04:15:22;101.70;;;34.90;;
68126;SDS011;54931;52.098;21.006;2023-02-07T04:17:50;103.80;;;36.30;;
68126;SDS011;54931;52.098;21.006;2023-02-07T04:20:18;92.70;;;36.20;;
68126;SDS011;54931;52.098;21.006;2023-02-07T04:22:46;94.70;;;34.40;;
68126;SDS011;54931;52.098;21.006;2023-02-07T04:25:15;94.50;;;50.70;;
68126;SDS011;54931;52.098;21.006;2023-02-07T04:27:43;96.00;;;34.50;;
68126;SDS011;54931;52.098;21.006;2023-02-07T04:30:11;94.10;;;37.60;;
68126;SDS011;54931;52.098;21.006;2023-02-07T04:32:40;88.50;;;34.50;;
68126;SDS011;54931;52.098;21.006;2023-02-07T04:35:09;94.40;;;36.80;;
68126;SDS011;54931;52.098;21.006;2023-02-07T04:37:38;88.10;;;37.00;;
68126;SDS011;54931;52.098;21.006;2023-02-07T04:40:07;96.90;;;33.30;;
68126;SDS011;54931;52.098;21.006;2023-02-07T04:42:38;99.00;;;37.40;;
68126;SDS011;54931;52.098;21.006;2023-02-07T04:45:07;72.70;;;31.30;;
68126;SDS011;54931;52.098;21.006;2023-02-07T04:47:35;91.90;;;36.20;;
68126;SDS011;54931;52.098;21.006;2023-02-07T04:50:03;91.70;;;35.00;;
68126;SDS011;54931;52.098;21.006;2023-02-07T04:52:31;88.30;;;34.80;;
68126;SDS011;54931;52.098;21.006;2023-02-07T04:54:59;97.30;;;36.20;;
68126;SDS011;54931;52.098;21.006;2023-02-07T04:57:26;85.20;;;32.60;;
68126;SDS011;54931;52.098;21.006;2023-02-07T04:59:54;93.60;;;34.40;;
68126;SDS011;54931;52.098;21.006;2023-02-07T05:02:22;81.30;;;30.80;;
68126;SDS011;54931;52.098;21.006;2023-02-07T05:04:50;94.00;;;35.90;;
68126;SDS011;54931;52.098;21.006;2023-02-07T05:07:19;95.20;;;35.20;;
68126;SDS011;54931;52.098;21.006;2023-02-07T05:09:47;87.70;;;31.70;;
68126;SDS011;54931;52.098;21.006;2023-02-07T05:12:14;85.10;;;30.60;;
68126;SDS011;54931;52.098;21.006;2023-02-07T05:14:42;91.10;;;34.60;;
68126;SDS011;54931;52.098;21.006;2023-02-07T05:17:10;88.70;;;33.00;;
68126;SDS011;54931;52.098;21.006;2023-02-07T05:19:38;84.00;;;31.60;;
68126;SDS011;54931;52.098;21.006;2023-02-07T05:22:06;90.00;;;32.90;;
68126;SDS011;54931;52.098;21.006;2023-02-07T05:24:34;81.80;;;31.20;;
68126;SDS011;54931;52.098;21.006;2023-02-07T05:27:02;90.60;;;34.50;;
68126;SDS011;54931;52.098;21.006;2023-02-07T05:29:30;83.60;;;31.50;;
68126;SDS011;54931;52.098;21.006;2023-02-07T05:31:58;84.30;;;36.50;;
68126;SDS011;54931;52.098;21.006;2023-02-07T05:34:45;78.70;;;30.70;;
68126;SDS011;54931;52.098;21.006;2023-02-07T05:37:13;90.20;;;35.80;;
68126;SDS011;54931;52.098;21.006;2023-02-07T05:39:41;71.90;;;27.50;;
68126;SDS011;54931;52.098;21.006;2023-02-07T05:42:09;76.20;;;28.70;;
68126;SDS011;54931;52.098;21.006;2023-02-07T05:44:37;73.40;;;29.30;;
68126;SDS011;54931;52.098;21.006;2023-02-07T05:47:05;73.90;;;28.00;;
68126;SDS011;54931;52.098;21.006;2023-02-07T05:49:33;64.50;;;24.10;;
68126;SDS011;54931;52.098;21.006;2023-02-07T05:52:00;70.60;;;27.30;;
68126;SDS011;54931;52.098;21.006;2023-02-07T05:54:28;68.20;;;25.00;;
68126;SDS011;54931;52.098;21.006;2023-02-07T05:56:56;60.50;;;24.40;;
68126;SDS011;54931;52.098;21.006;2023-02-07T05:59:24;56.00;;;20.60;;
68126;SDS011;54931;52.098;21.006;2023-02-07T06:01:52;51.00;;;20.50;;
68126;SDS011;54931;52.098;21.006;2023-02-07T06:04:20;62.70;;;22.80;;
68126;SDS011;54931;52.098;21.006;2023-02-07T06:06:48;54.90;;;23.50;;
68126;SDS011;54931;52.098;21.006;2023-02-07T06:09:16;55.40;;;23.90;;
68126;SDS011;54931;52.098;21.006;2023-02-07T06:11:44;58.00;;;23.60;;
68126;SDS011;54931;52.098;21.006;2023-02-07T06:14:11;59.50;;;22.70;;
68126;SDS011;54931;52.098;21.006;2023-02-07T06:16:39;52.40;;;22.60;;
68126;SDS011;54931;52.098;21.006;2023-02-07T06:19:07;47.10;;;20.50;;
68126;SDS011;54931;52.098;21.006;2023-02-07T06:21:37;55.70;;;20.00;;
68126;SDS011;54931;52.098;21.006;2023-02-07T06:24:06;54.20;;;21.60;;
68126;SDS011;54931;52.098;21.006;2023-02-07T06:26:34;56.10;;;24.10;;
68126;SDS011;54931;52.098;21.006;2023-02-07T06:29:02;47.60;;;21.10;;
68126;SDS011;54931;52.098;21.006;2023-02-07T06:31:30;49.00;;;20.40;;
68126;SDS011;54931;52.098;21.006;2023-02-07T06:33:58;49.30;;;20.00;;
68126;SDS011;54931;52.098;21.006;2023-02-07T06:36:25;50.50;;;21.10;;
68126;SDS011;54931;52.098;21.006;2023-02-07T06:38:53;53.90;;;20.50;;
68126;SDS011;54931;52.098;21.006;2023-02-07T06:41:22;49.80;;;19.50;;
68126;SDS011;54931;52.098;21.006;2023-02-07T06:43:49;54.60;;;20.30;;
68126;SDS011;54931;52.098;21.006;2023-02-07T06:46:17;48.60;;;18.40;;
68126;SDS011;54931;52.098;21.006;2023-02-07T06:48:45;48.60;;;18.80;;
68126;SDS011;54931;52.098;21.006;2023-02-07T06:51:13;51.10;;;21.30;;
68126;SDS011;54931;52.098;21.006;2023-02-07T06:53:41;49.30;;;19.10;;
68126;SDS011;54931;52.098;21.006;2023-02-07T06:56:08;49.40;;;20.30;;
68126;SDS011;54931;52.098;21.006;2023-02-07T06:58:36;47.60;;;19.50;;
68126;SDS011;54931;52.098;21.006;2023-02-07T07:01:04;52.20;;;21.00;;
68126;SDS011;54931;52.098;21.006;2023-02-07T07:03:32;51.90;;;20.70;;
68126;SDS011;54931;52.098;21.006;2023-02-07T07:06:00;52.40;;;19.70;;
68126;SDS011;54931;52.098;21.006;2023-02-07T07:08:28;48.60;;;19.70;;
68126;SDS011;54931;52.098;21.006;2023-02-07T07:10:56;47.30;;;19.50;;
68126;SDS011;54931;52.098;21.006;2023-02-07T07:13:24;48.00;;;18.80;;
68126;SDS011;54931;52.098;21.006;2023-02-07T07:15:51;50.80;;;18.70;;
68126;SDS011;54931;52.098;21.006;2023-02-07T07:18:19;48.50;;;19.10;;
68126;SDS011;54931;52.098;21.006;2023-02-07T07:20:52;48.20;;;19.20;;
68126;SDS011;54931;52.098;21.006;2023-02-07T07:23:20;45.90;;;18.10;;
68126;SDS011;54931;52.098;21.006;2023-02-07T07:25:49;45.60;;;18.50;;
68126;SDS011;54931;52.098;21.006;2023-02-07T07:28:16;50.20;;;20.50;;
68126;SDS011;54931;52.098;21.006;2023-02-07T07:30:44;53.30;;;21.10;;
68126;SDS011;54931;52.098;21.006;2023-02-07T07:33:12;49.10;;;19.50;;
68126;SDS011;54931;52.098;21.006;2023-02-07T07:35:40;50.10;;;21.60;;
68126;SDS011;54931;52.098;21.006;2023-02-07T07:38:08;53.40;;;20.60;;
68126;SDS011;54931;52.098;21.006;2023-02-07T07:40:36;83.60;;;27.70;;
68126;SDS011;54931;52.098;21.006;2023-02-07T07:43:04;51.90;;;20.70;;
68126;SDS011;54931;52.098;21.006;2023-02-07T07:45:32;55.40;;;23.60;;
68126;SDS011;54931;52.098;21.006;2023-02-07T07:48:00;54.80;;;21.90;;
68126;SDS011;54931;52.098;21.006;2023-02-07T07:50:28;51.90;;;21.40;;
68126;SDS011;54931;52.098;21.006;2023-02-07T07:52:56;50.90;;;22.30;;
68126;SDS011;54931;52.098;21.006;2023-02-07T07:55:24;53.00;;;20.70;;
68126;SDS011;54931;52.098;21.006;2023-02-07T07:57:52;65.80;;;25.70;;
68126;SDS011;54931;52.098;21.006;2023-02-07T08:00:20;55.70;;;20.80;;
68126;SDS011;54931;52.098;21.006;2023-02-07T08:02:48;54.60;;;21.30;;
68126;SDS011;54931;52.098;21.006;2023-02-07T08:05:16;54.70;;;21.60;;
68126;SDS011;54931;52.098;21.006;2023-02-07T08:07:44;52.30;;;20.30;;
68126;SDS011;54931;52.098;21.006;2023-02-07T08:10:11;49.50;;;21.30;;
68126;SDS011;54931;52.098;21.006;2023-02-07T08:12:39;47.40;;;20.80;;
68126;SDS011;54931;52.098;21.006;2023-02-07T08:15:07;48.70;;;19.00;;
68126;SDS011;54931;52.098;21.006;2023-02-07T08:17:35;45.50;;;20.50;;
68126;SDS011;54931;52.098;21.006;2023-02-07T08:20:04;52.80;;;21.40;;
68126;SDS011;54931;52.098;21.006;2023-02-07T08:22:32;51.10;;;20.60;;
68126;SDS011;54931;52.098;21.006;2023-02-07T08:25:00;47.40;;;20.60;;
68126;SDS011;54931;52.098;21.006;2023-02-07T08:27:28;48.50;;;21.50;;
68126;SDS011;54931;52.098;21.006;2023-02-07T08:29:56;47.60;;;19.70;;
68126;SDS011;54931;52.098;21.006;2023-02-07T08:32:24;49.10;;;22.30;;
68126;SDS011;54931;52.098;21.006;2023-02-07T08:34:52;44.20;;;19.60;;
68126;SDS011;54931;52.098;21.006;2023-02-07T08:37:19;49.10;;;20.80;;
68126;SDS011;54931;52.098;21.006;2023-02-07T08:39:48;49.20;;;21.80;;
68126;SDS011;54931;52.098;21.006;2023-02-07T08:42:19;49.00;;;19.70;;
68126;SDS011;54931;52.098;21.006;2023-02-07T08:44:49;43.20;;;18.80;;
68126;SDS011;54931;52.098;21.006;2023-02-07T08:47:17;46.50;;;18.70;;
68126;SDS011;54931;52.098;21.006;2023-02-07T08:49:45;50.80;;;19.80;;
68126;SDS011;54931;52.098;21.006;2023-02-07T08:52:13;44.70;;;18.80;;
68126;SDS011;54931;52.098;21.006;2023-02-07T08:54:41;42.90;;;18.80;;
68126;SDS011;54931;52.098;21.006;2023-02-07T08:57:09;52.90;;;20.30;;
68126;SDS011;54931;52.098;21.006;2023-02-07T08:59:37;48.00;;;19.40;;
68126;SDS011;54931;52.098;21.006;2023-02-07T09:02:05;48.00;;;20.40;;
68126;SDS011;54931;52.098;21.006;2023-02-07T09:04:33;50.20;;;20.70;;
68126;SDS011;54931;52.098;21.006;2023-02-07T09:07:02;45.00;;;21.10;;
68126;SDS011;54931;52.098;21.006;2023-02-07T09:09:31;53.30;;;21.80;;
68126;SDS011;54931;52.098;21.006;2023-02-07T09:11:59;51.70;;;19.60;;
68126;SDS011;54931;52.098;21.006;2023-02-07T09:14:27;62.10;;;25.10;;
68126;SDS011;54931;52.098;21.006;2023-02-07T09:16:55;55.00;;;23.00;;
68126;SDS011;54931;52.098;21.006;2023-02-07T09:19:23;59.10;;;24.90;;
68126;SDS011;54931;52.098;21.006;2023-02-07T09:21:50;50.90;;;23.00;;
68126;SDS011;54931;52.098;21.006;2023-02-07T09:24:18;44.90;;;20.80;;
68126;SDS011;54931;52.098;21.006;2023-02-07T09:26:47;46.70;;;19.40;;
68126;SDS011;54931;52.098;21.006;2023-02-07T09:29:15;45.20;;;19.30;;
68126;SDS011;54931;52.098;21.006;2023-02-07T09:31:43;49.00;;;21.60;;
68126;SDS011;54931;52.098;21.006;2023-02-07T09:34:11;50.30;;;20.10;;
68126;SDS011;54931;52.098;21.006;2023-02-07T09:36:39;46.30;;;19.80;;
68126;SDS011;54931;52.098;21.006;2023-02-07T09:39:07;46.40;;;19.10;;
68126;SDS011;54931;52.098;21.006;2023-02-07T09:42:02;53.70;;;22.50;;
68126;SDS011;54931;52.098;21.006;2023-02-07T09:44:43;60.60;;;25.50;;
68126;SDS011;54931;52.098;21.006;2023-02-07T09:47:22;54.30;;;23.60;;
68126;SDS011;54931;52.098;21.006;2023-02-07T09:49:55;48.70;;;19.70;;
68126;SDS011;54931;52.098;21.006;2023-02-07T09:52:33;45.90;;;19.50;;
68126;SDS011;54931;52.098;21.006;2023-02-07T09:55:15;42.40;;;17.70;;
68126;SDS011;54931;52.098;21.006;2023-02-07T09:58:18;45.70;;;19.10;;
68126;SDS011;54931;52.098;21.006;2023-02-07T10:01:16;47.40;;;19.70;;
68126;SDS011;54931;52.098;21.006;2023-02-07T10:06:50;40.30;;;17.60;;
68126;SDS011;54931;52.098;21.006;2023-02-07T10:09:29;39.90;;;18.30;;
68126;SDS011;54931;52.098;21.006;2023-02-07T10:18:25;34.40;;;15.70;;
68126;SDS011;54931;52.098;21.006;2023-02-07T10:28:08;34.20;;;15.30;;
68126;SDS011;54931;52.098;21.006;2023-02-07T10:30:53;37.60;;;17.10;;
68126;SDS011;54931;52.098;21.006;2023-02-07T10:33:30;45.30;;;19.20;;
68126;SDS011;54931;52.098;21.006;2023-02-07T10:36:02;38.80;;;17.70;;
68126;SDS011;54931;52.098;21.006;2023-02-07T10:38:39;37.20;;;18.50;;
68126;SDS011;54931;52.098;21.006;2023-02-07T10:44:00;41.70;;;17.50;;
68126;SDS011;54931;52.098;21.006;2023-02-07T10:46:28;37.00;;;16.90;;
68126;SDS011;54931;52.098;21.006;2023-02-07T10:48:56;36.30;;;16.40;;
68126;SDS011;54931;52.098;21.006;2023-02-07T10:51:42;40.60;;;17.00;;
68126;SDS011;54931;52.098;21.006;2023-02-07T10:54:14;37.40;;;18.60;;
68126;SDS011;54931;52.098;21.006;2023-02-07T10:56:47;37.30;;;16.50;;
68126;SDS011;54931;52.098;21.006;2023-02-07T10:59:42;37.20;;;17.60;;
68126;SDS011;54931;52.098;21.006;2023-02-07T11:05:05;33.80;;;17.70;;
68126;SDS011;54931;52.098;21.006;2023-02-07T11:08:20;36.60;;;17.00;;
68126;SDS011;54931;52.098;21.006;2023-02-07T11:10:55;50.90;;;20.20;;
68126;SDS011;54931;52.098;21.006;2023-02-07T11:13:27;79.50;;;27.30;;
68126;SDS011;54931;52.098;21.006;2023-02-07T11:16:05;50.80;;;20.40;;
68126;SDS011;54931;52.098;21.006;2023-02-07T11:21:33;58.90;;;23.30;;
68126;SDS011;54931;52.098;21.006;2023-02-07T11:24:16;48.20;;;20.10;;
68126;SDS011;54931;52.098;21.006;2023-02-07T11:27:07;46.40;;;18.50;;
68126;SDS011;54931;52.098;21.006;2023-02-07T11:30:06;37.50;;;16.30;;
68126;SDS011;54931;52.098;21.006;2023-02-07T11:32:36;38.50;;;16.30;;
68126;SDS011;54931;52.098;21.006;2023-02-07T11:35:06;35.00;;;16.60;;
68126;SDS011;54931;52.098;21.006;2023-02-07T11:37:37;35.60;;;16.40;;
68126;SDS011;54931;52.098;21.006;2023-02-07T11:40:25;36.20;;;17.40;;
68126;SDS011;54931;52.098;21.006;2023-02-07T11:43:02;34.50;;;15.10;;
68126;SDS011;54931;52.098;21.006;2023-02-07T11:45:38;32.60;;;15.60;;
68126;SDS011;54931;52.098;21.006;2023-02-07T11:48:33;32.20;;;14.90;;
68126;SDS011;54931;52.098;21.006;2023-02-07T11:51:06;33.00;;;15.50;;
68126;SDS011;54931;52.098;21.006;2023-02-07T11:53:55;33.50;;;15.00;;
68126;SDS011;54931;52.098;21.006;2023-02-07T11:56:32;31.10;;;14.00;;
68126;SDS011;54931;52.098;21.006;2023-02-07T11:59:14;32.40;;;15.20;;
68126;SDS011;54931;52.098;21.006;2023-02-07T12:01:51;32.30;;;16.20;;
68126;SDS011;54931;52.098;21.006;2023-02-07T12:04:36;35.30;;;15.70;;
68126;SDS011;54931;52.098;21.006;2023-02-07T12:07:09;35.20;;;16.70;;
68126;SDS011;54931;52.098;21.006;2023-02-07T12:09:56;33.50;;;16.50;;
68126;SDS011;54931;52.098;21.006;2023-02-07T12:15:57;31.80;;;15.20;;
68126;SDS011;54931;52.098;21.006;2023-02-07T12:18:35;34.00;;;15.80;;
68126;SDS011;54931;52.098;21.006;2023-02-07T12:24:12;33.00;;;15.80;;
68126;SDS011;54931;52.098;21.006;2023-02-07T12:30:01;32.80;;;14.80;;
68126;SDS011;54931;52.098;21.006;2023-02-07T12:35:35;36.60;;;15.10;;
68126;SDS011;54931;52.098;21.006;2023-02-07T12:40:56;37.60;;;16.90;;
68126;SDS011;54931;52.098;21.006;2023-02-07T12:43:46;34.10;;;16.30;;
68126;SDS011;54931;52.098;21.006;2023-02-07T12:49:24;32.80;;;15.60;;
68126;SDS011;54931;52.098;21.006;2023-02-07T12:52:58;34.70;;;15.60;;
68126;SDS011;54931;52.098;21.006;2023-02-07T13:01:46;34.30;;;15.70;;
68126;SDS011;54931;52.098;21.006;2023-02-07T13:04:40;36.80;;;15.00;;
68126;SDS011;54931;52.098;21.006;2023-02-07T13:10:17;34.60;;;13.60;;
68126;SDS011;54931;52.098;21.006;2023-02-07T13:24:14;32.30;;;14.40;;
68126;SDS011;54931;52.098;21.006;2023-02-07T13:26:50;28.90;;;14.10;;
68126;SDS011;54931;52.098;21.006;2023-02-07T13:29:28;34.40;;;15.00;;
68126;SDS011;54931;52.098;21.006;2023-02-07T13:32:06;32.40;;;14.30;;
68126;SDS011;54931;52.098;21.006;2023-02-07T13:34:52;27.40;;;12.10;;
68126;SDS011;54931;52.098;21.006;2023-02-07T13:46:35;34.10;;;15.80;;
68126;SDS011;54931;52.098;21.006;2023-02-07T13:49:52;36.60;;;15.60;;
68126;SDS011;54931;52.098;21.006;2023-02-07T13:52:48;33.00;;;15.40;;
68126;SDS011;54931;52.098;21.006;2023-02-07T14:01:26;38.20;;;18.10;;
68126;SDS011;54931;52.098;21.006;2023-02-07T14:06:31;59.30;;;23.20;;
68126;SDS011;54931;52.098;21.006;2023-02-07T14:12:21;51.20;;;21.60;;
68126;SDS011;54931;52.098;21.006;2023-02-07T14:14:53;46.30;;;19.60;;
68126;SDS011;54931;52.098;21.006;2023-02-07T14:20:02;46.70;;;19.30;;
68126;SDS011;54931;52.098;21.006;2023-02-07T14:33:19;54.40;;;20.90;;
68126;SDS011;54931;52.098;21.006;2023-02-07T14:41:36;50.10;;;22.10;;
68126;SDS011;54931;52.098;21.006;2023-02-07T14:44:19;44.80;;;18.60;;
68126;SDS011;54931;52.098;21.006;2023-02-07T14:46:56;42.60;;;20.10;;
68126;SDS011;54931;52.098;21.006;2023-02-07T14:52:00;41.40;;;18.70;;
68126;SDS011;54931;52.098;21.006;2023-02-07T15:00:09;45.60;;;18.60;;
68126;SDS011;54931;52.098;21.006;2023-02-07T15:02:44;47.70;;;18.30;;
68126;SDS011;54931;52.098;21.006;2023-02-07T15:05:24;45.60;;;19.10;;
68126;SDS011;54931;52.098;21.006;2023-02-07T15:10:39;47.80;;;22.40;;
68126;SDS011;54931;52.098;21.006;2023-02-07T15:13:22;54.80;;;21.60;;
68126;SDS011;54931;52.098;21.006;2023-02-07T15:15:57;46.80;;;20.00;;
68126;SDS011;54931;52.098;21.006;2023-02-07T15:18:34;49.40;;;19.60;;
68126;SDS011;54931;52.098;21.006;2023-02-07T15:21:15;46.20;;;19.60;;
68126;SDS011;54931;52.098;21.006;2023-02-07T15:24:06;51.30;;;22.20;;
68126;SDS011;54931;52.098;21.006;2023-02-07T15:26:42;54.60;;;23.50;;
68126;SDS011;54931;52.098;21.006;2023-02-07T15:29:21;61.80;;;23.70;;
68126;SDS011;54931;52.098;21.006;2023-02-07T15:31:51;60.70;;;23.20;;
68126;SDS011;54931;52.098;21.006;2023-02-07T15:34:25;57.70;;;22.80;;
68126;SDS011;54931;52.098;21.006;2023-02-07T15:37:13;65.40;;;26.80;;
68126;SDS011;54931;52.098;21.006;2023-02-07T15:39:46;52.10;;;21.20;;
68126;SDS011;54931;52.098;21.006;2023-02-07T15:42:15;86.90;;;29.80;;
68126;SDS011;54931;52.098;21.006;2023-02-07T15:44:50;102.30;;;31.90;;
68126;SDS011;54931;52.098;21.006;2023-02-07T15:50:03;62.70;;;25.50;;
68126;SDS011;54931;52.098;21.006;2023-02-07T15:55:23;59.90;;;23.60;;
68126;SDS011;54931;52.098;21.006;2023-02-07T15:58:36;62.80;;;24.50;;
68126;SDS011;54931;52.098;21.006;2023-02-07T16:01:14;70.60;;;25.40;;
68126;SDS011;54931;52.098;21.006;2023-02-07T16:03:48;65.00;;;24.60;;
68126;SDS011;54931;52.098;21.006;2023-02-07T16:06:20;59.40;;;23.80;;
68126;SDS011;54931;52.098;21.006;2023-02-07T16:08:54;77.70;;;26.70;;
68126;SDS011;54931;52.098;21.006;2023-02-07T16:13:54;63.10;;;23.20;;
68126;SDS011;54931;52.098;21.006;2023-02-07T16:16:47;62.50;;;23.50;;
68126;SDS011;54931;52.098;21.006;2023-02-07T16:19:23;103.80;;;31.70;;
68126;SDS011;54931;52.098;21.006;2023-02-07T16:22:11;52.70;;;21.10;;
68126;SDS011;54931;52.098;21.006;2023-02-07T16:24:43;55.70;;;20.40;;
68126;SDS011;54931;52.098;21.006;2023-02-07T16:27:19;78.30;;;26.00;;
68126;SDS011;54931;52.098;21.006;2023-02-07T16:29:53;61.70;;;22.00;;
68126;SDS011;54931;52.098;21.006;2023-02-07T16:32:24;52.30;;;20.20;;
68126;SDS011;54931;52.098;21.006;2023-02-07T16:34:56;68.50;;;21.40;;
68126;SDS011;54931;52.098;21.006;2023-02-07T16:37:27;44.20;;;19.00;;
68126;SDS011;54931;52.098;21.006;2023-02-07T16:39:55;60.70;;;21.50;;
68126;SDS011;54931;52.098;21.006;2023-02-07T16:42:23;62.50;;;23.30;;
68126;SDS011;54931;52.098;21.006;2023-02-07T16:44:52;59.90;;;23.10;;
68126;SDS011;54931;52.098;21.006;2023-02-07T16:47:20;63.40;;;23.40;;
68126;SDS011;54931;52.098;21.006;2023-02-07T16:49:49;59.60;;;25.20;;
68126;SDS011;54931;52.098;21.006;2023-02-07T16:52:17;51.70;;;21.60;;
68126;SDS011;54931;52.098;21.006;2023-02-07T16:54:45;51.40;;;22.10;;
68126;SDS011;54931;52.098;21.006;2023-02-07T16:57:14;49.90;;;20.20;;
68126;SDS011;54931;52.098;21.006;2023-02-07T16:59:42;57.70;;;23.50;;
68126;SDS011;54931;52.098;21.006;2023-02-07T17:02:14;54.40;;;22.40;;
68126;SDS011;54931;52.098;21.006;2023-02-07T17:04:43;60.90;;;25.00;;
68126;SDS011;54931;52.098;21.006;2023-02-07T17:07:11;57.10;;;21.50;;
68126;SDS011;54931;52.098;21.006;2023-02-07T17:09:39;53.30;;;21.30;;
68126;SDS011;54931;52.098;21.006;2023-02-07T17:12:08;59.30;;;23.40;;
68126;SDS011;54931;52.098;21.006;2023-02-07T17:14:36;55.30;;;21.80;;
68126;SDS011;54931;52.098;21.006;2023-02-07T17:17:04;59.60;;;24.30;;
68126;SDS011;54931;52.098;21.006;2023-02-07T17:19:32;56.00;;;22.80;;